Time;durP1;ratioP1;P1;durP2;ratioP2;P2;SDS_P1;SDS_P2;PMS_P1;PMS_P2;Temp;Humidity;BMP_temperature;BMP_pressure;BME280_temperature;BME280_humidity;BME280_pressure;Samples;Min_cycle;Max_cycle;Signal;HPM_P1;HPM_P2
2022/12/29 00:00:32;;;;;;;2.08;0.60;;;;;;;12.11;65.51;99556.03;10388261;28;20394;-68
2022/12/29 00:05:33;;;;;;;1.88;0.70;;;;;;;12.17;65.25;99547.13;10366731;28;20554;-67
2022/12/29 00:10:35;;;;;;;3.38;0.70;;;;;;;12.28;64.92;99535.75;10382681;28;20136;-68
2022/12/29 00:15:36;;;;;;;2.42;0.70;;;;;;;12.30;65.06;99533.66;10385474;28;20092;-66
2022/12/29 00:36:50;;;;;;;4.10;0.90;;;;;;;12.33;65.76;99535.09;10354461;28;20060;-66
2022/12/29 00:47:12;;;;;;;2.33;1.00;;;;;;;12.53;65.71;99537.78;10384749;28;20069;-66
2022/12/29 00:52:14;;;;;;;2.97;1.38;;;;;;;12.55;66.08;99538.41;10380269;28;20053;-66
2022/12/29 00:57:15;;;;;;;4.07;0.80;;;;;;;12.63;66.37;99529.28;10382608;28;20136;-68
2022/12/29 01:02:18;;;;;;;2.42;0.70;;;;;;;12.76;65.99;99526.56;10376493;28;20049;-67
2022/12/29 01:07:19;;;;;;;2.97;1.42;;;;;;;12.74;66.49;99511.59;10378198;28;20129;-67
2022/12/29 01:12:40;;;;;;;1.50;0.60;;;;;;;12.78;66.37;99502.09;10374890;28;20140;-66
2022/12/29 01:17:41;;;;;;;5.40;0.60;;;;;;;12.79;66.63;99491.06;10382387;28;20050;-67
2022/12/29 01:22:43;;;;;;;1.50;0.60;;;;;;;12.80;66.29;99508.09;10380618;28;20045;-66
2022/12/29 01:27:45;;;;;;;1.10;0.70;;;;;;;12.83;66.75;99486.91;10380414;28;20097;-67
2022/12/29 01:32:46;;;;;;;3.35;0.52;;;;;;;12.86;66.67;99474.88;10381125;28;20108;-66
2022/12/29 01:37:47;;;;;;;0.80;0.50;;;;;;;12.84;67.00;99476.97;10378984;28;20065;-65
2022/12/29 01:42:49;;;;;;;1.55;0.50;;;;;;;12.81;67.04;99461.19;10378720;28;20133;-65
2022/12/29 01:47:54;;;;;;;2.75;0.52;;;;;;;12.76;67.47;99488.81;10375786;28;20093;-64
2022/12/29 01:53:07;;;;;;;2.38;0.47;;;;;;;12.78;67.17;99502.91;10384197;28;20073;-66
2022/12/29 01:58:10;;;;;;;2.85;0.60;;;;;;;12.75;67.39;99489.81;10379470;28;20493;-67
2022/12/29 02:03:12;;;;;;;3.60;0.50;;;;;;;12.70;67.44;99487.78;10379031;28;20141;-64
2022/12/29 02:08:14;;;;;;;3.63;0.40;;;;;;;12.64;67.95;99488.63;10363692;28;20081;-65
2022/12/29 02:13:17;;;;;;;1.75;0.50;;;;;;;12.65;67.68;99490.28;10378463;28;20568;-67
2022/12/29 02:18:30;;;;;;;0.82;0.40;;;;;;;12.69;67.48;99493.38;10377749;28;20528;-66
2022/12/29 02:24:04;;;;;;;2.30;0.85;;;;;;;12.72;67.86;99487.56;10380910;28;20573;-66
2022/12/29 02:29:14;;;;;;;1.67;0.50;;;;;;;12.65;67.57;99502.94;10376974;28;20077;-66
2022/12/29 02:34:23;;;;;;;1.25;0.65;;;;;;;12.64;67.97;99501.28;10378396;28;20054;-68
2022/12/29 02:39:45;;;;;;;0.45;0.40;;;;;;;12.57;68.00;99490.50;10376021;28;20043;-67
2022/12/29 02:44:56;;;;;;;0.70;0.50;;;;;;;12.52;68.42;99460.66;10373651;28;20104;-66
2022/12/29 02:50:14;;;;;;;1.30;0.30;;;;;;;12.52;68.38;99481.38;10386089;28;20046;-66
2022/12/29 02:55:16;;;;;;;1.30;0.40;;;;;;;12.46;68.59;99474.94;10360290;28;20139;-62
2022/12/29 03:00:18;;;;;;;1.30;0.50;;;;;;;12.47;68.71;99484.72;10376939;28;20575;-65
2022/12/29 03:05:51;;;;;;;1.25;0.50;;;;;;;12.47;69.06;99468.53;10376652;28;20053;-67
2022/12/29 03:11:03;;;;;;;1.65;0.30;;;;;;;12.48;69.07;99470.22;10381882;28;20084;-68
2022/12/29 03:16:15;;;;;;;0.75;0.32;;;;;;;12.55;69.02;99470.19;10385113;28;20049;-66
2022/12/29 03:26:57;;;;;;;1.13;0.20;;;;;;;12.61;68.87;99458.56;10384087;28;20150;-67
2022/12/29 03:32:01;;;;;;;1.30;0.30;;;;;;;12.64;69.25;99458.97;10387900;28;20053;-66
2022/12/29 03:37:10;;;;;;;4.20;0.85;;;;;;;12.77;69.26;99447.28;10388757;28;20068;-64
2022/12/29 03:42:15;;;;;;;0.43;0.40;;;;;;;12.86;69.00;99440.63;10385943;28;20058;-66
2022/12/29 03:47:16;;;;;;;0.80;0.40;;;;;;;12.95;68.37;99432.31;10379802;28;20157;-67
2022/12/29 03:52:17;;;;;;;2.15;0.40;;;;;;;13.01;68.11;99435.00;10379204;28;20144;-65
2022/12/29 03:57:19;;;;;;;2.20;0.30;;;;;;;13.06;68.13;99426.25;10376556;28;20069;-66
2022/12/29 04:02:20;;;;;;;2.63;0.32;;;;;;;13.04;68.19;99417.53;10374644;28;20077;-66
2022/12/29 04:07:22;;;;;;;1.25;0.40;;;;;;;13.14;67.94;99415.19;10379451;28;20046;-67
2022/12/29 04:12:23;;;;;;;1.85;0.40;;;;;;;13.22;67.15;99417.63;10377310;28;20132;-66
2022/12/29 04:17:25;;;;;;;2.28;0.40;;;;;;;13.27;66.96;99403.50;10382578;28;20084;-66
2022/12/29 04:22:26;;;;;;;1.27;0.30;;;;;;;13.28;66.81;99437.53;10382616;28;20132;-65
2022/12/29 04:27:27;;;;;;;2.85;0.40;;;;;;;13.35;66.16;99432.13;10379013;28;20145;-66
2022/12/29 04:32:29;;;;;;;2.35;0.50;;;;;;;13.40;66.21;99445.81;10381284;28;20055;-64
2022/12/29 04:37:30;;;;;;;1.95;0.47;;;;;;;13.38;66.17;99456.00;10379159;28;20073;-67
2022/12/29 04:42:31;;;;;;;1.58;0.40;;;;;;;13.36;66.15;99452.69;10380418;28;20131;-66
2022/12/29 04:47:33;;;;;;;0.70;0.30;;;;;;;13.35;66.29;99448.31;10378227;28;20045;-68
2022/12/29 04:52:35;;;;;;;4.43;0.52;;;;;;;13.21;66.66;99456.47;10380481;28;20107;-67
2022/12/29 04:57:36;;;;;;;1.25;0.40;;;;;;;13.10;67.12;99440.94;10382576;28;20583;-67
2022/12/29 05:02:38;;;;;;;2.65;0.80;;;;;;;13.12;66.43;99446.13;10383908;28;20056;-65
2022/12/29 05:07:39;;;;;;;3.15;0.30;;;;;;;13.18;66.35;99439.88;10380361;28;20133;-66
2022/12/29 05:12:41;;;;;;;0.65;0.50;;;;;;;13.38;65.50;99435.22;10358885;28;20092;-66
2022/12/29 05:17:42;;;;;;;0.40;0.28;;;;;;;13.46;64.97;99443.06;10372966;28;20050;-66
2022/12/29 05:22:44;;;;;;;1.90;0.40;;;;;;;13.55;65.03;99446.34;10378621;28;20592;-67
2022/12/29 05:27:45;;;;;;;0.85;0.30;;;;;;;13.53;65.09;99443.03;10375229;28;20152;-66
2022/12/29 05:32:46;;;;;;;2.88;0.63;;;;;;;13.55;65.08;99451.75;10370139;28;20119;-65
2022/12/29 05:37:48;;;;;;;2.55;0.30;;;;;;;13.47;65.48;99452.00;10380788;28;20064;-66
2022/12/29 05:42:49;;;;;;;2.83;0.40;;;;;;;13.24;66.47;99458.72;10379803;28;20144;-66
2022/12/29 05:47:51;;;;;;;0.65;0.65;;;;;;;13.09;67.12;99453.63;10381320;28;20112;-68
2022/12/29 05:52:52;;;;;;;3.47;0.40;;;;;;;12.99;67.28;99445.13;10378645;28;20038;-67
2022/12/29 05:57:53;;;;;;;0.75;0.43;;;;;;;13.03;67.02;99448.22;10374482;28;20050;-66
2022/12/29 06:02:55;;;;;;;1.20;0.55;;;;;;;13.05;67.07;99444.31;10378847;28;20073;-68
2022/12/29 06:07:56;;;;;;;2.97;0.50;;;;;;;13.07;66.84;99439.53;10377528;28;20092;-65
2022/12/29 06:12:58;;;;;;;2.25;0.30;;;;;;;13.20;66.54;99453.97;10376564;28;20073;-65
2022/12/29 06:17:59;;;;;;;1.80;0.90;;;;;;;13.25;66.27;99443.34;10381239;28;20065;-66
2022/12/29 06:23:00;;;;;;;3.63;0.70;;;;;;;13.23;66.30;99442.75;10387410;28;20041;-67
2022/12/29 06:28:02;;;;;;;7.07;0.65;;;;;;;13.27;66.22;99444.81;10385343;28;20073;-68
2022/12/29 06:33:04;;;;;;;2.80;0.73;;;;;;;13.15;66.62;99434.91;10371926;28;20073;-69
2022/12/29 06:38:05;;;;;;;1.90;0.45;;;;;;;13.21;66.35;99440.28;10389288;28;20108;-68
2022/12/29 06:43:07;;;;;;;2.15;0.40;;;;;;;13.26;65.87;99437.75;10391012;28;20060;-68
2022/12/29 06:48:08;;;;;;;0.65;0.30;;;;;;;13.24;66.32;99433.63;10393553;28;20115;-66
2022/12/29 06:53:10;;;;;;;3.28;0.43;;;;;;;13.28;66.37;99435.66;10389224;28;20112;-67
2022/12/29 06:58:11;;;;;;;1.77;0.40;;;;;;;13.35;66.03;99429.41;10364740;28;20084;-67
2022/12/29 07:03:13;;;;;;;2.65;0.40;;;;;;;13.06;67.39;99445.13;10389204;28;20125;-68
2022/12/29 07:08:14;;;;;;;0.63;0.40;;;;;;;12.72;68.51;99433.63;10391047;28;20512;-68
2022/12/29 07:13:15;;;;;;;0.98;0.60;;;;;;;12.49;69.36;99416.06;10387615;28;20133;-70
2022/12/29 07:18:17;;;;;;;4.25;1.25;;;;;;;12.40;69.90;99420.03;10395474;28;20057;-68
2022/12/29 07:23:18;;;;;;;3.17;0.47;;;;;;;12.44;69.45;99415.03;10409635;28;20054;-68
2022/12/29 07:28:20;;;;;;;3.83;0.93;;;;;;;12.57;69.57;99422.28;10394609;28;20337;-66
2022/12/29 07:33:21;;;;;;;1.98;0.68;;;;;;;12.63;69.43;99418.72;10378387;28;20042;-70
2022/12/29 07:38:22;;;;;;;4.90;1.30;;;;;;;12.74;68.78;99425.31;10395653;28;20073;-66
2022/12/29 07:43:24;;;;;;;2.78;0.60;;;;;;;12.85;68.12;99427.34;10395902;28;20107;-69
2022/12/29 07:48:26;;;;;;;2.85;0.50;;;;;;;12.92;68.25;99427.34;10383078;28;20042;-68
2022/12/29 07:53:27;;;;;;;4.38;1.02;;;;;;;13.01;67.58;99429.59;10377598;28;20053;-68
2022/12/29 07:58:29;;;;;;;6.45;1.08;;;;;;;13.13;67.17;99434.28;10382678;28;20125;-66
2022/12/29 08:03:30;;;;;;;3.22;0.80;;;;;;;13.22;66.76;99433.00;10385724;28;20169;-73
2022/12/29 08:08:31;;;;;;;4.25;0.82;;;;;;;13.30;66.07;99443.56;10379499;28;20420;-68
2022/12/29 08:13:33;;;;;;;4.65;1.17;;;;;;;13.38;65.55;99442.50;10393233;28;20049;-71
2022/12/29 08:18:35;;;;;;;2.65;0.93;;;;;;;13.43;65.43;99450.78;10394343;28;20088;-69
2022/12/29 08:23:36;;;;;;;2.58;0.90;;;;;;;13.49;65.10;99463.41;10412974;28;20038;-66
2022/12/29 08:28:37;;;;;;;3.42;0.80;;;;;;;13.54;64.99;99468.97;10416588;28;20058;-68
2022/12/29 08:33:39;;;;;;;3.13;0.50;;;;;;;13.55;65.12;99477.91;10409320;28;20052;-67
2022/12/29 08:38:40;;;;;;;3.00;0.77;;;;;;;13.59;65.09;99477.25;10404726;28;20105;-65
2022/12/29 08:43:45;;;;;;;2.95;0.70;;;;;;;13.63;64.64;99478.47;10395841;28;20057;-66
2022/12/29 08:48:47;;;;;;;2.63;0.88;;;;;;;13.65;64.63;99454.78;10389138;28;20382;-67
2022/12/29 08:53:49;;;;;;;3.85;0.60;;;;;;;13.65;65.07;99470.97;10404204;28;20132;-68
2022/12/29 08:58:52;;;;;;;2.53;0.82;;;;;;;13.75;64.76;99472.38;10415080;28;20046;-68
2022/12/29 09:03:54;;;;;;;3.78;0.80;;;;;;;13.64;65.32;99484.69;10412854;28;20057;-67
2022/12/29 09:09:15;;;;;;;1.70;0.75;;;;;;;13.53;65.77;99504.31;10428612;28;20072;-65
2022/12/29 09:14:17;;;;;;;2.63;1.00;;;;;;;13.47;66.23;99506.00;10438054;28;20076;-66
2022/12/29 09:19:18;;;;;;;5.35;1.35;;;;;;;13.47;66.22;99519.50;10429215;28;20041;-69
2022/12/29 09:24:19;;;;;;;6.03;1.10;;;;;;;13.52;66.26;99522.38;10390680;28;20050;-67
2022/12/29 09:29:21;;;;;;;3.58;1.35;;;;;;;13.43;67.00;99531.78;10414665;28;20500;-68
2022/12/29 09:34:23;;;;;;;2.38;1.00;;;;;;;13.30;67.48;99532.66;10422218;28;20112;-66
2022/12/29 09:39:27;;;;;;;3.30;1.17;;;;;;;13.25;68.00;99535.13;10430408;28;20060;-66
2022/12/29 09:44:46;;;;;;;3.95;1.00;;;;;;;13.22;67.70;99533.69;10433097;28;20057;-66
2022/12/29 09:50:00;;;;;;;4.00;1.17;;;;;;;13.19;68.10;99542.22;10433420;28;20038;-65
2022/12/29 09:55:25;;;;;;;1.48;0.73;;;;;;;13.09;68.50;99539.13;10418968;28;20029;-67
2022/12/29 10:00:40;;;;;;;4.90;2.50;;;;;;;13.13;68.79;99545.78;10447921;28;20084;-65
2022/12/29 10:05:50;;;;;;;4.20;1.17;;;;;;;13.17;69.39;99540.75;10451294;28;20049;-65
2022/12/29 10:10:58;;;;;;;3.88;0.80;;;;;;;13.15;69.28;99540.13;10432531;28;20041;-67
2022/12/29 10:16:25;;;;;;;3.35;0.82;;;;;;;13.06;69.37;99531.47;10446184;28;20049;-67
2022/12/29 10:21:45;;;;;;;3.90;0.90;;;;;;;12.98;69.63;99543.31;10440232;28;20038;-65
2022/12/29 10:26:50;;;;;;;1.25;0.68;;;;;;;12.89;70.06;99528.38;10480126;22;20095;-87
2022/12/29 10:32:01;;;;;;;1.52;0.60;;;;;;;12.84;70.41;99529.03;10434737;28;20052;-88
2022/12/29 10:37:14;;;;;;;1.83;0.50;;;;;;;12.77;70.38;99539.00;10455682;28;20298;-86
2022/12/29 10:42:37;;;;;;;2.40;0.55;;;;;;;12.85;70.01;99537.94;10402259;28;20038;-88
2022/12/29 10:47:51;;;;;;;5.20;0.82;;;;;;;12.86;69.63;99534.22;10421256;28;20077;-87
2022/12/29 10:52:56;;;;;;;3.08;0.30;;;;;;;12.91;69.51;99539.78;10432133;28;20057;-87
2022/12/29 10:58:04;;;;;;;3.38;0.90;;;;;;;12.94;69.54;99527.78;10370257;28;20127;-87
2022/12/29 11:03:21;;;;;;;2.63;0.47;;;;;;;13.00;69.03;99522.34;10391285;28;20056;-86
2022/12/29 11:08:37;;;;;;;2.40;0.30;;;;;;;13.06;68.63;99528.75;10400679;28;20053;-85
2022/12/29 11:13:50;;;;;;;2.00;0.30;;;;;;;13.21;67.82;99517.69;10404460;28;20043;-86
2022/12/29 11:18:52;;;;;;;2.50;0.47;;;;;;;13.33;66.97;99528.69;10384060;28;20052;-87
2022/12/29 11:24:02;;;;;;;0.40;0.20;;;;;;;13.47;66.74;99539.22;10397628;28;20065;-86
2022/12/29 11:29:21;;;;;;;0.22;0.22;;;;;;;13.60;66.01;99545.59;10380353;28;20117;-86
2022/12/29 11:34:33;;;;;;;3.22;0.30;;;;;;;13.77;65.02;99551.34;10417639;28;20052;-86
2022/12/29 11:39:57;;;;;;;1.17;0.30;;;;;;;13.89;64.77;99547.69;10396986;28;20049;-85
2022/12/29 11:45:20;;;;;;;2.50;0.17;;;;;;;13.97;64.09;99554.72;10380986;28;20503;-87
2022/12/29 11:50:26;;;;;;;0.60;0.10;;;;;;;14.02;63.40;99544.09;10395398;28;20056;-86
2022/12/29 11:55:29;;;;;;;1.00;0.10;;;;;;;14.12;63.25;99550.88;10401725;28;20119;-86
2022/12/29 12:00:34;;;;;;;2.55;0.10;;;;;;;14.12;62.69;99548.19;10403746;28;20057;-88
2022/12/29 12:05:52;;;;;;;3.30;0.30;;;;;;;14.17;62.56;99535.66;10400152;28;20068;-86
2022/12/29 12:11:18;;;;;;;2.75;0.10;;;;;;;14.33;61.96;99539.69;10397778;28;20080;-86
2022/12/29 12:16:31;;;;;;;2.13;0.10;;;;;;;14.43;61.78;99550.00;10413403;28;20734;-85
2022/12/29 12:21:40;;;;;;;1.13;0.15;;;;;;;14.49;61.36;99538.31;10399793;28;20091;-86
2022/12/29 12:27:12;;;;;;;0.95;0.15;;;;;;;14.52;61.01;99551.41;10401968;28;20140;-87
2022/12/29 12:32:24;;;;;;;1.05;0.30;;;;;;;14.43;60.48;99548.13;10377716;28;20053;-85
2022/12/29 12:38:20;;;;;;;1.50;0.30;;;;;;;14.38;60.39;99539.88;10415058;28;20100;-85
2022/12/29 12:43:50;;;;;;;2.63;0.20;;;;;;;14.44;59.99;99543.56;10375618;28;20041;-87
2022/12/29 12:49:21;;;;;;;1.75;0.20;;;;;;;14.55;59.51;99539.31;10402860;28;20057;-87
2022/12/29 12:54:38;;;;;;;3.35;0.20;;;;;;;14.59;59.72;99544.09;10399459;28;20124;-86
2022/12/29 12:59:42;;;;;;;2.22;0.17;;;;;;;14.59;59.03;99541.41;10400083;28;20049;-86
2022/12/29 13:05:09;;;;;;;3.33;1.02;;;;;;;14.53;59.33;99538.69;10383228;28;20383;-86
2022/12/29 13:10:26;;;;;;;1.60;0.10;;;;;;;14.36;59.56;99547.38;10412901;28;20492;-86
2022/12/29 13:15:50;;;;;;;3.00;0.50;;;;;;;14.29;60.12;99541.19;10381813;28;20045;-87
2022/12/29 13:21:17;;;;;;;0.83;0.20;;;;;;;14.23;60.32;99537.47;10394762;28;20187;-86
2022/12/29 13:26:32;;;;;;;1.83;0.30;;;;;;;14.20;60.65;99542.53;10379654;28;20046;-85
2022/12/29 13:31:41;;;;;;;0.60;0.20;;;;;;;14.20;60.81;99542.53;10409825;28;20103;-85
2022/12/29 13:36:48;;;;;;;0.75;0.20;;;;;;;14.23;61.03;99523.97;10374092;28;20057;-88
2022/12/29 13:41:55;;;;;;;1.92;0.20;;;;;;;14.21;61.24;99530.66;10383502;28;20096;-87
2022/12/29 13:46:59;;;;;;;0.75;0.20;;;;;;;14.25;60.89;99537.28;10376818;28;20049;-86
2022/12/29 13:52:32;;;;;;;1.70;0.20;;;;;;;14.31;60.97;99547.19;10393099;28;20049;-86
2022/12/29 13:57:47;;;;;;;3.42;0.93;;;;;;;14.32;60.62;99554.28;10391106;28;20119;-87
2022/12/29 14:02:55;;;;;;;1.17;0.20;;;;;;;14.38;60.33;99541.75;10399496;28;20053;-87
2022/12/29 14:08:04;;;;;;;2.05;0.22;;;;;;;14.38;60.10;99536.34;10386914;28;20064;-86
2022/12/29 14:13:12;;;;;;;1.35;0.43;;;;;;;14.33;59.83;99549.69;10409345;28;20500;-87
2022/12/29 14:18:16;;;;;;;1.00;0.38;;;;;;;14.33;59.45;99550.50;10399827;28;20049;-87
2022/12/29 14:23:40;;;;;;;1.13;0.30;;;;;;;14.16;59.46;99549.38;10373936;28;20595;-88
2022/12/29 14:28:45;;;;;;;3.53;0.35;;;;;;;14.17;59.22;99580.78;10385198;28;20125;-86
2022/12/29 14:34:05;;;;;;;4.00;0.55;;;;;;;14.12;59.17;99575.19;10379243;28;20049;-86
2022/12/29 14:39:39;;;;;;;4.18;0.40;;;;;;;14.04;59.27;99581.69;10385967;28;20029;-86
2022/12/29 14:44:49;;;;;;;2.85;0.40;;;;;;;14.05;59.27;99591.47;10394858;28;20053;-85
2022/12/29 14:49:52;;;;;;;2.60;0.30;;;;;;;13.98;59.41;99591.53;10393419;28;20113;-86
2022/12/29 14:54:58;;;;;;;2.33;0.20;;;;;;;14.01;59.28;99599.19;10393427;28;20081;-87
2022/12/29 15:00:26;;;;;;;1.08;0.22;;;;;;;13.93;59.06;99590.50;10404941;28;20049;-88
2022/12/29 15:05:40;;;;;;;3.60;1.60;;;;;;;13.91;58.46;99592.59;10393904;28;20049;-87
2022/12/29 15:11:05;;;;;;;2.28;0.30;;;;;;;13.77;58.56;99587.25;10410033;28;20045;-87
2022/12/29 15:16:25;;;;;;;3.45;0.30;;;;;;;13.75;58.11;99580.44;10394483;28;20136;-87
2022/12/29 15:21:35;;;;;;;6.40;0.55;;;;;;;13.68;58.24;99592.09;10386388;28;20052;-87
2022/12/29 15:26:40;;;;;;;6.00;0.52;;;;;;;13.59;58.31;99604.19;10421679;28;20105;-87
2022/12/29 15:31:48;;;;;;;1.83;0.30;;;;;;;13.51;57.80;99601.72;10384031;28;20055;-87
2022/12/29 15:36:50;;;;;;;2.75;1.40;;;;;;;13.51;58.09;99608.97;10395518;28;20045;-88
2022/12/29 15:42:33;;;;;;;2.67;0.30;;;;;;;13.40;58.17;99608.59;10400118;28;20080;-88
2022/12/29 15:47:40;;;;;;;3.80;0.40;;;;;;;13.32;58.17;99618.81;10387660;28;20466;-86
2022/12/29 15:52:43;;;;;;;3.50;0.30;;;;;;;13.32;58.18;99614.22;10386455;28;20057;-86
2022/12/29 15:57:44;;;;;;;4.60;0.90;;;;;;;13.31;57.90;99647.69;10400016;28;20097;-86
2022/12/29 16:02:49;;;;;;;3.28;0.32;;;;;;;13.23;57.90;99648.72;10430269;28;20037;-89
2022/12/29 16:07:56;;;;;;;1.60;0.50;;;;;;;13.30;57.78;99662.22;10422923;23;20052;-67
2022/12/29 16:13:25;;;;;;;2.05;0.50;;;;;;;13.23;57.45;99672.16;10448745;28;20041;-67
2022/12/29 16:18:30;;;;;;;4.90;0.65;;;;;;;13.10;57.83;99660.34;10448724;28;20103;-68
2022/12/29 16:23:36;;;;;;;5.00;0.73;;;;;;;13.03;57.87;99664.06;10442274;28;20044;-70
2022/12/29 16:28:43;;;;;;;2.35;0.30;;;;;;;12.94;57.78;99668.88;10401570;28;20073;-67
2022/12/29 16:33:47;;;;;;;1.77;0.75;;;;;;;12.92;58.11;99672.81;10438676;28;20493;-69
2022/12/29 16:38:49;;;;;;;2.47;0.82;;;;;;;12.93;58.09;99698.75;10440301;28;20126;-69
2022/12/29 16:44:12;;;;;;;4.22;0.50;;;;;;;12.80;58.34;99704.97;10440569;28;20048;-67
2022/12/29 16:49:17;;;;;;;3.63;0.43;;;;;;;12.76;58.50;99701.84;10452116;28;20094;-68
2022/12/29 16:54:33;;;;;;;3.28;0.50;;;;;;;12.66;59.02;99714.94;10409680;28;20193;-70
2022/12/29 16:59:42;;;;;;;4.13;0.40;;;;;;;12.61;59.20;99718.22;10400254;28;20050;-67
2022/12/29 17:04:48;;;;;;;2.53;0.20;;;;;;;12.50;59.14;99719.66;10383461;28;20145;-68
2022/12/29 17:09:52;;;;;;;1.98;0.60;;;;;;;12.46;59.49;99726.50;10400463;28;20064;-69
2022/12/29 17:14:57;;;;;;;3.33;0.30;;;;;;;12.44;59.30;99727.72;10395258;28;20052;-67
2022/12/29 17:20:17;;;;;;;4.35;0.95;;;;;;;12.37;59.91;99735.78;10375779;28;20378;-67
2022/12/29 17:25:28;;;;;;;2.53;0.50;;;;;;;12.33;59.91;99741.81;10385275;28;20085;-68
2022/12/29 17:30:33;;;;;;;2.45;0.40;;;;;;;12.24;60.09;99741.13;10382626;28;20107;-67
2022/12/29 17:35:35;;;;;;;1.63;0.20;;;;;;;12.20;60.13;99743.38;10386518;28;20097;-67
2022/12/29 17:40:36;;;;;;;5.75;0.50;;;;;;;12.19;59.91;99738.22;10382067;28;20052;-68
2022/12/29 17:45:39;;;;;;;2.28;0.47;;;;;;;12.18;59.75;99736.56;10375734;28;20056;-66
2022/12/29 17:50:41;;;;;;;2.90;0.40;;;;;;;12.08;60.19;99740.47;10366797;28;20041;-67
2022/12/29 17:55:42;;;;;;;2.63;0.40;;;;;;;12.05;59.68;99740.03;10382312;28;20065;-68
2022/12/29 18:00:45;;;;;;;3.15;0.30;;;;;;;11.97;60.13;99729.44;10373705;28;20054;-66
2022/12/29 18:05:48;;;;;;;4.05;0.68;;;;;;;11.93;59.70;99726.31;10381075;28;20489;-67
2022/12/29 18:10:52;;;;;;;4.55;0.40;;;;;;;11.96;59.75;99725.06;10350750;28;20050;-67
2022/12/29 18:15:54;;;;;;;5.20;0.40;;;;;;;11.96;59.61;99744.75;10386994;28;20049;-67
2022/12/29 18:20:58;;;;;;;2.00;0.35;;;;;;;11.92;59.99;99734.59;10386494;28;20744;-68
2022/12/29 18:26:36;;;;;;;7.40;0.60;;;;;;;11.90;59.47;99735.59;10385436;28;20107;-68
2022/12/29 18:31:37;;;;;;;4.20;0.50;;;;;;;11.92;59.91;99750.75;10342159;28;20496;-66
2022/12/29 18:36:39;;;;;;;1.42;0.50;;;;;;;11.90;59.79;99742.84;10385893;28;20049;-67
2022/12/29 18:41:40;;;;;;;4.53;0.60;;;;;;;11.81;59.80;99758.34;10386306;28;20136;-67
2022/12/29 18:46:42;;;;;;;8.73;0.60;;;;;;;11.77;60.40;99759.75;10387938;28;20132;-67
2022/12/29 18:51:43;;;;;;;5.07;0.50;;;;;;;11.74;60.78;99772.78;10387014;28;20646;-66
2022/12/29 18:56:45;;;;;;;6.60;0.93;;;;;;;11.82;60.72;99775.31;10389900;28;20129;-68
2022/12/29 19:01:46;;;;;;;6.10;0.70;;;;;;;11.70;61.08;99788.50;10370737;28;20495;-66
2022/12/29 19:06:48;;;;;;;6.00;0.85;;;;;;;11.71;60.87;99791.00;10375947;28;20523;-68
2022/12/29 19:11:49;;;;;;;3.78;0.65;;;;;;;11.66;61.40;99796.13;10388513;28;20058;-67
2022/12/29 19:16:51;;;;;;;4.47;0.65;;;;;;;11.58;61.47;99798.97;10381880;28;20077;-65
2022/12/29 19:21:55;;;;;;;5.75;1.23;;;;;;;11.57;61.73;99800.03;10383749;28;20107;-68
2022/12/29 19:26:56;;;;;;;7.22;1.10;;;;;;;11.51;61.55;99809.72;10385798;28;20064;-66
2022/12/29 19:31:58;;;;;;;3.75;0.90;;;;;;;11.47;61.98;99794.97;10389362;28;20069;-68
2022/12/29 19:36:59;;;;;;;2.20;0.45;;;;;;;11.46;61.79;99803.25;10375078;28;20053;-67
2022/12/29 19:42:00;;;;;;;6.68;0.88;;;;;;;11.48;61.95;99810.09;10385499;28;20124;-67
2022/12/29 19:47:05;;;;;;;4.45;0.60;;;;;;;11.42;62.18;99816.25;10379295;28;20536;-68
2022/12/29 19:52:07;;;;;;;4.57;1.27;;;;;;;11.44;61.74;99832.22;10382758;28;20107;-67
2022/12/29 19:57:08;;;;;;;5.50;0.60;;;;;;;11.38;61.63;99830.28;10387294;28;20092;-66
2022/12/29 20:02:32;;;;;;;8.52;1.05;;;;;;;11.41;62.22;99832.59;10383759;28;20053;-67
2022/12/29 20:07:34;;;;;;;8.77;0.90;;;;;;;11.50;61.90;99826.88;10384332;28;20108;-68
2022/12/29 20:12:37;;;;;;;9.00;1.95;;;;;;;11.46;61.71;99811.31;10384571;28;20046;-67
2022/12/29 20:17:38;;;;;;;17.67;2.85;;;;;;;11.52;61.63;99818.59;10385026;28;20132;-67
2022/12/29 20:22:59;;;;;;;12.15;1.77;;;;;;;11.59;61.61;99826.72;10379671;28;20508;-67
2022/12/29 20:28:01;;;;;;;5.00;1.23;;;;;;;11.50;61.63;99831.44;10379836;28;20523;-67
2022/12/29 20:33:02;;;;;;;6.80;1.85;;;;;;;11.61;61.12;99841.66;10380835;28;20622;-68
2022/12/29 20:38:09;;;;;;;11.23;3.58;;;;;;;11.61;61.00;99849.75;10383282;28;20052;-67
2022/12/29 20:43:10;;;;;;;7.68;1.65;;;;;;;11.57;61.06;99853.00;10385233;28;20578;-67
2022/12/29 20:48:12;;;;;;;5.55;0.70;;;;;;;11.55;61.47;99850.50;10383443;28;20144;-67
2022/12/29 20:53:13;;;;;;;5.13;0.65;;;;;;;11.54;61.32;99859.63;10380664;28;20148;-65
2022/12/29 20:58:15;;;;;;;10.43;1.48;;;;;;;11.50;61.50;99877.19;10377512;28;20120;-67
2022/12/29 21:03:25;;;;;;;6.43;1.63;;;;;;;11.46;61.46;99863.28;10377155;28;20396;-68
2022/12/29 21:08:29;;;;;;;10.90;2.42;;;;;;;11.36;61.91;99880.78;10372386;28;20050;-68
2022/12/29 21:13:31;;;;;;;14.10;2.42;;;;;;;11.26;62.21;99881.09;10380786;28;20099;-67
2022/12/29 21:18:33;;;;;;;8.57;1.73;;;;;;;11.25;62.06;99884.81;10381704;28;20157;-66
2022/12/29 21:23:38;;;;;;;10.25;2.83;;;;;;;11.16;62.66;99885.94;10379392;28;20115;-66
2022/12/29 21:28:40;;;;;;;5.47;0.90;;;;;;;11.11;62.75;99894.59;10357863;28;20496;-68
2022/12/29 21:33:41;;;;;;;7.13;0.70;;;;;;;11.05;62.79;99892.69;10379449;28;20519;-67
2022/12/29 21:38:43;;;;;;;8.98;1.17;;;;;;;11.06;62.86;99900.56;10379495;28;20077;-67
2022/12/29 21:49:16;;;;;;;7.35;0.70;;;;;;;11.07;63.11;99920.22;10299191;28;20110;-68
2022/12/29 21:55:02;;;;;;;7.65;0.70;;;;;;;11.10;62.63;99920.69;10382419;28;20084;-67
2022/12/29 22:16:04;;;;;;;7.10;0.57;;;;;;;10.86;62.68;99946.06;9974762;22;20246;-64
2022/12/29 22:21:10;;;;;;;6.32;0.85;;;;;;;10.89;62.44;99959.09;10433399;23;20050;-89
2022/12/29 22:26:13;;;;;;;5.50;0.80;;;;;;;10.87;61.99;99957.63;10393785;28;20069;-88
2022/12/29 22:31:29;;;;;;;9.15;0.70;;;;;;;10.84;61.89;99955.31;10428313;28;20078;-88
2022/12/29 22:36:32;;;;;;;5.82;1.17;;;;;;;10.71;62.16;99962.19;10417834;28;20045;-88
2022/12/29 22:41:35;;;;;;;5.00;0.65;;;;;;;10.66;61.95;99959.25;10407940;28;20042;-91
2022/12/29 22:46:37;;;;;;;3.42;0.40;;;;;;;10.62;62.25;99970.53;10424134;28;20046;-91
2022/12/29 22:51:39;;;;;;;9.57;0.50;;;;;;;10.64;62.57;99969.34;10443950;28;20046;-91
2022/12/29 22:56:41;;;;;;;5.90;0.60;;;;;;;10.59;62.86;99974.44;10417090;28;20045;-91
2022/12/29 23:01:43;;;;;;;6.50;0.70;;;;;;;10.50;62.73;99972.84;10425023;28;20081;-92
2022/12/29 23:06:45;;;;;;;8.98;0.60;;;;;;;10.51;63.11;100001.41;10420729;28;20050;-91
2022/12/29 23:11:47;;;;;;;7.80;1.52;;;;;;;10.47;62.84;100006.31;10427134;28;20519;-92
2022/12/29 23:16:50;;;;;;;4.90;0.70;;;;;;;10.35;63.14;100018.53;10436030;28;20049;-91
2022/12/29 23:27:36;;;;;;;12.98;1.05;;;;;;;10.22;63.82;100029.03;10634950;22;19979;-90
2022/12/29 23:32:38;;;;;;;8.02;0.93;;;;;;;10.28;63.57;100028.28;10381870;23;20374;-68
2022/12/29 23:37:39;;;;;;;12.32;1.50;;;;;;;10.24;63.82;100027.81;10348856;28;20051;-69
2022/12/29 23:42:41;;;;;;;6.10;1.05;;;;;;;10.21;63.84;100035.38;10649994;23;20090;-65
2022/12/29 23:47:42;;;;;;;5.72;0.93;;;;;;;10.10;64.02;100050.94;10346416;28;20042;-65
2022/12/29 23:52:44;;;;;;;4.65;0.70;;;;;;;9.95;64.41;100046.53;10613229;23;20041;-90
2022/12/29 23:57:45;;;;;;;3.85;0.50;;;;;;;9.85;64.80;100041.38;11089664;22;20030;-64
